Accueil
METAR-TAF:

METAR-TAF

Aéroports :

Trévise, Italie

latitude: 45-41N, longitude: 012-06E, altitude: 45 m

Observation

Le bulletin a été fait il y a 1 heure et 24 minutes, à 02:55 UTC
Vent 4 kt de nord/nord-est
Température 22°C
Humidité 88%
Pression 1010 hPa
Visibilité 10 km ou plus
Nuages épars à une hauteur de 10000 ft

METAR: LIPS 140255Z 02004KT 9999 SCT100 22/20 Q1010 RMK SCT VIS MIN 9999 WIND THR26 03004KT WIND THR08 02003KT BLU

Heure: 06:19 (04:19 UTC)

Prévision

Le bulletin a été fait il y a 2 heures et 19 minutes, à 02:00 UTC
Prévision valable du 14 à 03 UTC au 14 à 12 UTC
Vent 5 kt de direction variable
Visibilité 10 km ou plus
Quelques nuages à une hauteur de 2000 ft
Temporairement
du 14 à 03 UTC au 14 à 06 UTC
Quelques nuages à une hauteur de 8000 ft

TAF: LIPS 140200Z 1403/1412 VRB05KT 9999 FEW020 TEMPO 1403/1406 FEW080

Observations et prévisions météorologiques de plus de 4000 aéroports (messages METAR et TAF).

Les stations disponibles sont représentées par des disques jaunes et rouges sur la carte.

Passer la souris dessus pour voir le nom de la station.

Cliquer dessus pour voir les observations et prévisions météorologiques.

Pour changer de carte: cliquez sur les boutons verts avec une croix noire pour zoomer, sur le bouton vert avec un tiret pour effectuer un zoom arrière, ou sur les flèches vertes pour les cartes adjacentes.


METAR-TAF: